sensor_id;sensor_type;location;lat;lon;timestamp;pressure;altitude;pressure_sealevel;temperature;humidity
59419;BME280;45224;50.904;6.038;2022-11-15T00:00:21;99136.94;;;11.09;99.12
59419;BME280;45224;50.904;6.038;2022-11-15T00:02:10;99136.88;;;11.12;99.62
59419;BME280;45224;50.904;6.038;2022-11-15T00:03:59;99130.03;;;11.11;98.63
59419;BME280;45224;50.904;6.038;2022-11-15T00:05:49;99135.19;;;11.11;99.01
59419;BME280;45224;50.904;6.038;2022-11-15T00:07:38;99135.19;;;11.11;98.99
59419;BME280;45224;50.904;6.038;2022-11-15T00:09:28;99131.69;;;11.14;98.93
59419;BME280;45224;50.904;6.038;2022-11-15T00:11:17;99136.84;;;11.15;98.49
59419;BME280;45224;50.904;6.038;2022-11-15T00:13:12;99135.19;;;11.13;99.19
59419;BME280;45224;50.904;6.038;2022-11-15T00:15:01;99136.78;;;11.22;98.72
59419;BME280;45224;50.904;6.038;2022-11-15T00:16:49;99130.75;;;11.21;98.00
59419;BME280;45224;50.904;6.038;2022-11-15T00:18:38;99128.13;;;11.26;96.67
59419;BME280;45224;50.904;6.038;2022-11-15T00:20:27;99136.69;;;11.28;96.27
59419;BME280;45224;50.904;6.038;2022-11-15T00:22:16;99129.81;;;11.27;96.68
59419;BME280;45224;50.904;6.038;2022-11-15T00:24:05;99128.97;;;11.25;97.52
59419;BME280;45224;50.904;6.038;2022-11-15T00:25:56;99127.22;;;11.27;96.97
59419;BME280;45224;50.904;6.038;2022-11-15T00:27:45;99132.34;;;11.30;96.98
59419;BME280;45224;50.904;6.038;2022-11-15T00:29:34;99128.13;;;11.26;97.76
59419;BME280;45224;50.904;6.038;2022-11-15T00:31:26;99128.06;;;11.29;97.94
59419;BME280;45224;50.904;6.038;2022-11-15T00:33:15;99122.84;;;11.32;97.27
59419;BME280;45224;50.904;6.038;2022-11-15T00:35:04;99123.72;;;11.31;97.36
59419;BME280;45224;50.904;6.038;2022-11-15T00:36:53;99127.19;;;11.30;97.29
59419;BME280;45224;50.904;6.038;2022-11-15T00:38:42;99121.09;;;11.34;96.89
59419;BME280;45224;50.904;6.038;2022-11-15T00:40:31;99122.75;;;11.38;95.57
59419;BME280;45224;50.904;6.038;2022-11-15T00:42:20;99119.34;;;11.36;95.91
59419;BME280;45224;50.904;6.038;2022-11-15T00:44:09;99108.97;;;11.36;95.55
59419;BME280;45224;50.904;6.038;2022-11-15T00:45:58;99114.13;;;11.39;95.99
59419;BME280;45224;50.904;6.038;2022-11-15T00:47:47;99109.81;;;11.37;96.02
59419;BME280;45224;50.904;6.038;2022-11-15T00:49:36;99114.91;;;11.43;95.34
59419;BME280;45224;50.904;6.038;2022-11-15T00:51:25;99115.81;;;11.43;94.99
59419;BME280;45224;50.904;6.038;2022-11-15T00:53:14;99112.34;;;11.41;94.82
59419;BME280;45224;50.904;6.038;2022-11-15T00:55:03;99110.63;;;11.43;94.73
59419;BME280;45224;50.904;6.038;2022-11-15T00:56:52;99111.47;;;11.44;94.08
59419;BME280;45224;50.904;6.038;2022-11-15T00:58:41;99114.06;;;11.42;94.68
59419;BME280;45224;50.904;6.038;2022-11-15T01:00:30;99114.97;;;11.38;95.55
59419;BME280;45224;50.904;6.038;2022-11-15T01:02:19;99116.69;;;11.41;94.41
59419;BME280;45224;50.904;6.038;2022-11-15T01:04:08;99110.69;;;11.37;94.32
59419;BME280;45224;50.904;6.038;2022-11-15T01:05:59;99109.75;;;11.41;93.76
59419;BME280;45224;50.904;6.038;2022-11-15T01:07:52;99108.94;;;11.39;94.77
59419;BME280;45224;50.904;6.038;2022-11-15T01:09:41;99114.97;;;11.40;93.94
59419;BME280;45224;50.904;6.038;2022-11-15T01:11:30;99107.22;;;11.38;93.86
59419;BME280;45224;50.904;6.038;2022-11-15T01:13:19;99100.41;;;11.34;95.04
59419;BME280;45224;50.904;6.038;2022-11-15T01:15:08;99106.41;;;11.36;93.99
59419;BME280;45224;50.904;6.038;2022-11-15T01:16:57;99105.56;;;11.34;94.96
59419;BME280;45224;50.904;6.038;2022-11-15T01:18:46;99103.84;;;11.33;94.88
59419;BME280;45224;50.904;6.038;2022-11-15T01:20:42;99097.03;;;11.29;94.67
59419;BME280;45224;50.904;6.038;2022-11-15T01:22:31;99103.91;;;11.28;95.09
59419;BME280;45224;50.904;6.038;2022-11-15T01:24:20;99102.25;;;11.24;96.29
59419;BME280;45224;50.904;6.038;2022-11-15T01:26:11;99103.97;;;11.24;95.98
59419;BME280;45224;50.904;6.038;2022-11-15T01:28:01;99097.09;;;11.23;95.97
59419;BME280;45224;50.904;6.038;2022-11-15T01:29:50;99098.88;;;11.19;95.87
59419;BME280;45224;50.904;6.038;2022-11-15T01:31:38;99105.75;;;11.19;95.77
59419;BME280;45224;50.904;6.038;2022-11-15T01:33:29;99099.75;;;11.17;95.61
59419;BME280;45224;50.904;6.038;2022-11-15T01:35:18;99100.63;;;11.15;96.30
59419;BME280;45224;50.904;6.038;2022-11-15T01:37:09;99098.97;;;11.13;96.25
59419;BME280;45224;50.904;6.038;2022-11-15T01:38:58;99086.00;;;11.14;94.75
59419;BME280;45224;50.904;6.038;2022-11-15T01:40:48;99080.78;;;11.19;94.95
59419;BME280;45224;50.904;6.038;2022-11-15T01:42:37;99083.34;;;11.21;94.64
59419;BME280;45224;50.904;6.038;2022-11-15T01:44:47;99085.06;;;11.19;94.77
59419;BME280;45224;50.904;6.038;2022-11-15T01:46:37;99086.81;;;11.17;94.35
59419;BME280;45224;50.904;6.038;2022-11-15T01:48:32;99085.09;;;11.17;94.27
59419;BME280;45224;50.904;6.038;2022-11-15T01:50:29;99079.03;;;11.18;94.08
59419;BME280;45224;50.904;6.038;2022-11-15T01:52:22;99083.38;;;11.18;93.50
59419;BME280;45224;50.904;6.038;2022-11-15T01:54:15;99082.53;;;11.15;93.48
59419;BME280;45224;50.904;6.038;2022-11-15T01:56:08;99079.06;;;11.17;93.61
59419;BME280;45224;50.904;6.038;2022-11-15T01:58:02;99084.19;;;11.20;92.75
59419;BME280;45224;50.904;6.038;2022-11-15T01:59:52;99082.56;;;11.12;93.31
59419;BME280;45224;50.904;6.038;2022-11-15T02:01:43;99083.41;;;11.14;93.75
59419;BME280;45224;50.904;6.038;2022-11-15T02:03:52;99080.84;;;11.13;94.07
59419;BME280;45224;50.904;6.038;2022-11-15T02:05:42;99078.31;;;11.08;94.09
59419;BME280;45224;50.904;6.038;2022-11-15T02:07:34;99075.72;;;11.10;93.59
59419;BME280;45224;50.904;6.038;2022-11-15T02:09:23;99079.13;;;11.12;93.37
59419;BME280;45224;50.904;6.038;2022-11-15T02:11:12;99063.66;;;11.07;93.91
59419;BME280;45224;50.904;6.038;2022-11-15T02:13:01;99077.47;;;11.09;94.28
59419;BME280;45224;50.904;6.038;2022-11-15T02:14:53;99075.75;;;11.07;94.03
59419;BME280;45224;50.904;6.038;2022-11-15T02:18:49;99068.00;;;11.05;94.96
59419;BME280;45224;50.904;6.038;2022-11-15T02:20:50;99076.56;;;11.10;94.34
59419;BME280;45224;50.904;6.038;2022-11-15T02:30:00;99073.03;;;11.18;94.44
59419;BME280;45224;50.904;6.038;2022-11-15T02:32:06;99066.13;;;11.17;94.75
59419;BME280;45224;50.904;6.038;2022-11-15T02:34:34;99066.97;;;11.19;95.22
59419;BME280;45224;50.904;6.038;2022-11-15T02:36:46;99065.16;;;11.22;94.05
59419;BME280;45224;50.904;6.038;2022-11-15T02:38:56;99066.88;;;11.25;93.95
59419;BME280;45224;50.904;6.038;2022-11-15T02:40:59;99064.28;;;11.25;94.25
59419;BME280;45224;50.904;6.038;2022-11-15T02:42:54;99062.53;;;11.27;94.40
59419;BME280;45224;50.904;6.038;2022-11-15T02:45:07;99053.94;;;11.25;94.41
59419;BME280;45224;50.904;6.038;2022-11-15T02:47:00;99059.09;;;11.26;94.73
59419;BME280;45224;50.904;6.038;2022-11-15T02:49:02;99060.00;;;11.22;95.81
59419;BME280;45224;50.904;6.038;2022-11-15T02:50:52;99059.06;;;11.28;95.31
59419;BME280;45224;50.904;6.038;2022-11-15T02:52:45;99052.16;;;11.27;95.16
59419;BME280;45224;50.904;6.038;2022-11-15T02:54:34;99056.50;;;11.26;95.79
59419;BME280;45224;50.904;6.038;2022-11-15T02:56:23;99052.16;;;11.27;95.74
59419;BME280;45224;50.904;6.038;2022-11-15T03:00:20;99063.38;;;11.30;95.77
59419;BME280;45224;50.904;6.038;2022-11-15T03:06:55;99048.69;;;11.31;95.93
59419;BME280;45224;50.904;6.038;2022-11-15T03:11:11;99047.91;;;11.24;100.00
59419;BME280;45224;50.904;6.038;2022-11-15T03:13:19;99047.13;;;11.21;100.00
59419;BME280;45224;50.904;6.038;2022-11-15T03:20:04;99027.31;;;11.17;100.00
59419;BME280;45224;50.904;6.038;2022-11-15T03:21:35;99034.19;;;11.19;100.00
59419;BME280;45224;50.904;6.038;2022-11-15T03:23:28;99024.69;;;11.20;100.00
59419;BME280;45224;50.904;6.038;2022-11-15T03:25:21;99024.72;;;11.17;100.00
59419;BME280;45224;50.904;6.038;2022-11-15T03:27:15;99028.16;;;11.19;100.00
59419;BME280;45224;50.904;6.038;2022-11-15T03:29:11;99028.91;;;11.25;100.00
59419;BME280;45224;50.904;6.038;2022-11-15T03:31:03;99027.25;;;11.23;100.00
59419;BME280;45224;50.904;6.038;2022-11-15T03:33:13;99026.34;;;11.24;100.00
59419;BME280;45224;50.904;6.038;2022-11-15T03:35:12;99022.97;;;11.19;100.00
59419;BME280;45224;50.904;6.038;2022-11-15T03:37:03;99023.75;;;11.24;100.00
59419;BME280;45224;50.904;6.038;2022-11-15T03:38:56;99016.16;;;11.14;100.00
59419;BME280;45224;50.904;6.038;2022-11-15T03:43:09;99023.91;;;11.14;100.00
59419;BME280;45224;50.904;6.038;2022-11-15T03:47:03;99023.06;;;11.12;100.00
59419;BME280;45224;50.904;6.038;2022-11-15T03:49:13;99022.19;;;11.13;100.00
59419;BME280;45224;50.904;6.038;2022-11-15T03:51:04;99017.03;;;11.12;100.00
59419;BME280;45224;50.904;6.038;2022-11-15T03:52:54;99010.22;;;11.08;100.00
59419;BME280;45224;50.904;6.038;2022-11-15T03:54:49;99013.66;;;11.08;100.00
59419;BME280;45224;50.904;6.038;2022-11-15T03:56:38;99017.00;;;11.15;100.00
59419;BME280;45224;50.904;6.038;2022-11-15T03:58:26;99018.69;;;11.19;100.00
59419;BME280;45224;50.904;6.038;2022-11-15T04:00:15;99020.44;;;11.14;100.00
59419;BME280;45224;50.904;6.038;2022-11-15T04:02:04;99025.53;;;11.20;100.00
59419;BME280;45224;50.904;6.038;2022-11-15T04:03:53;99022.97;;;11.19;100.00
59419;BME280;45224;50.904;6.038;2022-11-15T04:05:42;99021.16;;;11.24;100.00
59419;BME280;45224;50.904;6.038;2022-11-15T04:07:31;99017.75;;;11.22;100.00
59419;BME280;45224;50.904;6.038;2022-11-15T04:09:20;99016.94;;;11.20;100.00
59419;BME280;45224;50.904;6.038;2022-11-15T04:11:09;99017.75;;;11.22;100.00
59419;BME280;45224;50.904;6.038;2022-11-15T04:12:58;99013.53;;;11.18;100.00
59419;BME280;45224;50.904;6.038;2022-11-15T04:14:47;99010.84;;;11.22;100.00
59419;BME280;45224;50.904;6.038;2022-11-15T04:16:55;99010.91;;;11.19;100.00
59419;BME280;45224;50.904;6.038;2022-11-15T04:18:44;99015.22;;;11.19;100.00
59419;BME280;45224;50.904;6.038;2022-11-15T04:20:33;99019.53;;;11.20;100.00
59419;BME280;45224;50.904;6.038;2022-11-15T04:22:41;99021.28;;;11.18;100.00
59419;BME280;45224;50.904;6.038;2022-11-15T04:24:49;99015.22;;;11.19;100.00
59419;BME280;45224;50.904;6.038;2022-11-15T04:26:38;99010.88;;;11.21;100.00
59419;BME280;45224;50.904;6.038;2022-11-15T04:28:27;99015.13;;;11.25;100.00
59419;BME280;45224;50.904;6.038;2022-11-15T04:30:16;99020.34;;;11.22;100.00
59419;BME280;45224;50.904;6.038;2022-11-15T04:32:06;99019.53;;;11.20;100.00
59419;BME280;45224;50.904;6.038;2022-11-15T04:33:56;99015.13;;;11.25;100.00
59419;BME280;45224;50.904;6.038;2022-11-15T04:35:45;99015.09;;;11.26;100.00
59419;BME280;45224;50.904;6.038;2022-11-15T04:37:55;99016.00;;;11.22;100.00
59419;BME280;45224;50.904;6.038;2022-11-15T04:39:45;99023.00;;;11.15;100.00
59419;BME280;45224;50.904;6.038;2022-11-15T04:41:34;99010.94;;;11.18;100.00
59419;BME280;45224;50.904;6.038;2022-11-15T04:43:23;99025.50;;;11.23;100.00
59419;BME280;45224;50.904;6.038;2022-11-15T04:45:12;99015.97;;;11.25;100.00
59419;BME280;45224;50.904;6.038;2022-11-15T04:47:01;99021.13;;;11.27;100.00
59419;BME280;45224;50.904;6.038;2022-11-15T04:48:52;99022.75;;;11.34;100.00
59419;BME280;45224;50.904;6.038;2022-11-15T04:50:41;99032.22;;;11.35;100.00
59419;BME280;45224;50.904;6.038;2022-11-15T04:52:30;99024.44;;;11.35;100.00
59419;BME280;45224;50.904;6.038;2022-11-15T04:54:19;99029.53;;;11.41;100.00
59419;BME280;45224;50.904;6.038;2022-11-15T04:56:08;99031.38;;;11.33;100.00
59419;BME280;45224;50.904;6.038;2022-11-15T04:57:58;99028.78;;;11.33;100.00
59419;BME280;45224;50.904;6.038;2022-11-15T04:59:48;99016.78;;;11.30;100.00
59419;BME280;45224;50.904;6.038;2022-11-15T05:01:37;99019.38;;;11.30;100.00
59419;BME280;45224;50.904;6.038;2022-11-15T05:03:26;99010.72;;;11.30;100.00
59419;BME280;45224;50.904;6.038;2022-11-15T05:05:34;99005.59;;;11.27;100.00
59419;BME280;45224;50.904;6.038;2022-11-15T05:07:23;99010.72;;;11.30;100.00
59419;BME280;45224;50.904;6.038;2022-11-15T05:09:12;99003.75;;;11.35;100.00
59419;BME280;45224;50.904;6.038;2022-11-15T05:11:02;99010.69;;;11.33;100.00
59419;BME280;45224;50.904;6.038;2022-11-15T05:12:51;99000.41;;;11.27;100.00
59419;BME280;45224;50.904;6.038;2022-11-15T05:14:40;99005.56;;;11.30;100.00
59419;BME280;45224;50.904;6.038;2022-11-15T05:16:29;99012.56;;;11.22;100.00
59419;BME280;45224;50.904;6.038;2022-11-15T05:18:18;99019.38;;;11.29;100.00
59419;BME280;45224;50.904;6.038;2022-11-15T05:20:07;99012.50;;;11.28;100.00
59419;BME280;45224;50.904;6.038;2022-11-15T05:21:56;99013.34;;;11.28;100.00
59419;BME280;45224;50.904;6.038;2022-11-15T05:23:46;99001.34;;;11.24;100.00
59419;BME280;45224;50.904;6.038;2022-11-15T05:25:36;99007.38;;;11.25;100.00
59419;BME280;45224;50.904;6.038;2022-11-15T05:27:25;99008.22;;;11.25;100.00
59419;BME280;45224;50.904;6.038;2022-11-15T05:29:14;99005.63;;;11.24;100.00
59419;BME280;45224;50.904;6.038;2022-11-15T05:31:08;99005.72;;;11.21;100.00
59419;BME280;45224;50.904;6.038;2022-11-15T05:32:57;99008.44;;;11.11;100.00
59419;BME280;45224;50.904;6.038;2022-11-15T05:34:46;99003.19;;;11.18;100.00
59419;BME280;45224;50.904;6.038;2022-11-15T05:38:26;99012.88;;;11.03;100.00
59419;BME280;45224;50.904;6.038;2022-11-15T05:40:15;99000.69;;;11.10;100.00
59419;BME280;45224;50.904;6.038;2022-11-15T05:42:06;99008.50;;;11.05;99.49
59419;BME280;45224;50.904;6.038;2022-11-15T05:43:56;99004.09;;;11.13;99.26
59419;BME280;45224;50.904;6.038;2022-11-15T05:45:46;99005.84;;;11.11;99.24
59419;BME280;45224;50.904;6.038;2022-11-15T05:47:36;99000.72;;;11.08;98.89
59419;BME280;45224;50.904;6.038;2022-11-15T05:49:30;99011.88;;;11.10;98.36
59419;BME280;45224;50.904;6.038;2022-11-15T05:51:20;99013.59;;;11.13;98.44
59419;BME280;45224;50.904;6.038;2022-11-15T05:53:13;99011.81;;;11.15;98.05
59419;BME280;45224;50.904;6.038;2022-11-15T05:55:04;99008.25;;;11.22;96.96
59419;BME280;45224;50.904;6.038;2022-11-15T05:56:54;99015.16;;;11.23;96.93
59419;BME280;45224;50.904;6.038;2022-11-15T05:58:44;99015.13;;;11.25;97.03
59419;BME280;45224;50.904;6.038;2022-11-15T06:00:33;99020.09;;;11.39;95.83
59419;BME280;45224;50.904;6.038;2022-11-15T06:02:22;99035.75;;;11.29;95.93
59419;BME280;45224;50.904;6.038;2022-11-15T06:04:11;99024.00;;;11.07;97.30
59419;BME280;45224;50.904;6.038;2022-11-15T06:06:00;99029.13;;;11.11;97.79
59419;BME280;45224;50.904;6.038;2022-11-15T06:07:49;99033.41;;;11.12;98.23
59419;BME280;45224;50.904;6.038;2022-11-15T06:09:38;99045.56;;;11.07;99.87
59419;BME280;45224;50.904;6.038;2022-11-15T06:11:27;99053.50;;;10.95;100.00
59419;BME280;45224;50.904;6.038;2022-11-15T06:13:16;99050.88;;;10.98;100.00
59419;BME280;45224;50.904;6.038;2022-11-15T06:15:06;99054.41;;;10.91;100.00
59419;BME280;45224;50.904;6.038;2022-11-15T06:16:55;99060.53;;;10.85;100.00
59419;BME280;45224;50.904;6.038;2022-11-15T06:18:44;99064.75;;;10.91;100.00
59419;BME280;45224;50.904;6.038;2022-11-15T06:20:33;99063.03;;;10.88;100.00
59419;BME280;45224;50.904;6.038;2022-11-15T06:22:22;99056.16;;;10.89;100.00
59419;BME280;45224;50.904;6.038;2022-11-15T06:24:11;99048.38;;;10.90;100.00
59419;BME280;45224;50.904;6.038;2022-11-15T06:26:01;99061.34;;;10.89;100.00
59419;BME280;45224;50.904;6.038;2022-11-15T06:27:55;99058.72;;;10.90;100.00
59419;BME280;45224;50.904;6.038;2022-11-15T06:29:45;99060.44;;;10.90;100.00
59419;BME280;45224;50.904;6.038;2022-11-15T06:31:34;99063.03;;;10.90;100.00
59419;BME280;45224;50.904;6.038;2022-11-15T06:33:23;99054.38;;;10.94;100.00
59419;BME280;45224;50.904;6.038;2022-11-15T06:35:13;99067.38;;;10.88;100.00
59419;BME280;45224;50.904;6.038;2022-11-15T06:37:02;99071.69;;;10.89;100.00
59419;BME280;45224;50.904;6.038;2022-11-15T06:38:52;99074.31;;;10.86;100.00
59419;BME280;45224;50.904;6.038;2022-11-15T06:40:41;99076.91;;;10.83;100.00
59419;BME280;45224;50.904;6.038;2022-11-15T06:42:30;99076.06;;;10.84;100.00
59419;BME280;45224;50.904;6.038;2022-11-15T06:44:19;99073.47;;;10.84;100.00
59419;BME280;45224;50.904;6.038;2022-11-15T06:46:08;99087.22;;;10.86;100.00
59419;BME280;45224;50.904;6.038;2022-11-15T06:47:58;99082.09;;;10.83;100.00
59419;BME280;45224;50.904;6.038;2022-11-15T06:49:47;99073.53;;;10.77;100.00
59419;BME280;45224;50.904;6.038;2022-11-15T06:51:36;99074.44;;;10.73;100.00
59419;BME280;45224;50.904;6.038;2022-11-15T06:53:25;99070.31;;;10.60;100.00
59419;BME280;45224;50.904;6.038;2022-11-15T06:55:15;99067.69;;;10.63;100.00
59419;BME280;45224;50.904;6.038;2022-11-15T06:57:04;99072.00;;;10.64;100.00
59419;BME280;45224;50.904;6.038;2022-11-15T06:58:53;99073.69;;;10.65;100.00
59419;BME280;45224;50.904;6.038;2022-11-15T07:00:42;99080.59;;;10.63;100.00
59419;BME280;45224;50.904;6.038;2022-11-15T07:02:31;99073.72;;;10.62;100.00
59419;BME280;45224;50.904;6.038;2022-11-15T07:04:20;99080.59;;;10.63;100.00
59419;BME280;45224;50.904;6.038;2022-11-15T07:06:09;99074.59;;;10.63;100.00
59419;BME280;45224;50.904;6.038;2022-11-15T07:07:59;99074.63;;;10.59;100.00
59419;BME280;45224;50.904;6.038;2022-11-15T07:09:48;99082.31;;;10.64;100.00
59419;BME280;45224;50.904;6.038;2022-11-15T07:11:37;99084.00;;;10.67;100.00
59419;BME280;45224;50.904;6.038;2022-11-15T07:13:27;99084.88;;;10.66;100.00
59419;BME280;45224;50.904;6.038;2022-11-15T07:15:17;99098.69;;;10.65;100.00
59419;BME280;45224;50.904;6.038;2022-11-15T07:17:06;99092.59;;;10.67;100.00
59419;BME280;45224;50.904;6.038;2022-11-15T07:18:55;99081.44;;;10.64;99.99
59419;BME280;45224;50.904;6.038;2022-11-15T07:20:44;99096.09;;;10.66;99.94
59419;BME280;45224;50.904;6.038;2022-11-15T07:22:33;99090.91;;;10.66;99.68
59419;BME280;45224;50.904;6.038;2022-11-15T07:24:22;99095.25;;;10.64;99.83
59419;BME280;45224;50.904;6.038;2022-11-15T07:26:11;99089.19;;;10.65;99.59
59419;BME280;45224;50.904;6.038;2022-11-15T07:28:00;99094.34;;;10.65;99.49
59419;BME280;45224;50.904;6.038;2022-11-15T07:29:49;99096.13;;;10.63;99.37
59419;BME280;45224;50.904;6.038;2022-11-15T07:31:38;99095.19;;;10.69;99.01
59419;BME280;45224;50.904;6.038;2022-11-15T07:33:27;99094.31;;;10.68;98.98
59419;BME280;45224;50.904;6.038;2022-11-15T07:35:16;99096.09;;;10.66;98.91
59419;BME280;45224;50.904;6.038;2022-11-15T07:37:05;99096.13;;;10.63;99.30
59419;BME280;45224;50.904;6.038;2022-11-15T07:38:54;99091.84;;;10.59;99.37
59419;BME280;45224;50.904;6.038;2022-11-15T07:40:44;99104.84;;;10.53;99.46
59419;BME280;45224;50.904;6.038;2022-11-15T07:42:33;99105.72;;;10.52;98.67
59419;BME280;45224;50.904;6.038;2022-11-15T07:44:40;99108.38;;;10.46;98.76
59419;BME280;45224;50.904;6.038;2022-11-15T07:46:31;99113.50;;;10.49;97.50
59419;BME280;45224;50.904;6.038;2022-11-15T07:48:20;99117.84;;;10.45;96.59
59419;BME280;45224;50.904;6.038;2022-11-15T07:50:09;99110.97;;;10.43;96.92
59419;BME280;45224;50.904;6.038;2022-11-15T07:51:58;99113.47;;;10.50;96.85
59419;BME280;45224;50.904;6.038;2022-11-15T07:53:47;99110.84;;;10.56;95.98
59419;BME280;45224;50.904;6.038;2022-11-15T07:55:36;99108.25;;;10.58;95.11
59419;BME280;45224;50.904;6.038;2022-11-15T07:57:25;99107.38;;;10.57;95.05
59419;BME280;45224;50.904;6.038;2022-11-15T07:59:15;99103.94;;;10.57;94.11
59419;BME280;45224;50.904;6.038;2022-11-15T08:01:08;99105.72;;;10.50;92.81
59419;BME280;45224;50.904;6.038;2022-11-15T08:03:15;99101.47;;;10.45;90.83
59419;BME280;45224;50.904;6.038;2022-11-15T08:05:04;99098.81;;;10.51;89.58
59419;BME280;45224;50.904;6.038;2022-11-15T08:06:54;99090.91;;;10.66;88.85
59419;BME280;45224;50.904;6.038;2022-11-15T08:08:43;99092.44;;;10.83;87.78
59419;BME280;45224;50.904;6.038;2022-11-15T08:10:32;99081.16;;;10.88;86.75
59419;BME280;45224;50.904;6.038;2022-11-15T08:12:22;99081.97;;;10.93;85.73
59419;BME280;45224;50.904;6.038;2022-11-15T08:14:10;99084.56;;;10.92;81.94
59419;BME280;45224;50.904;6.038;2022-11-15T08:16:01;99081.81;;;11.04;82.64
59419;BME280;45224;50.904;6.038;2022-11-15T08:17:58;99075.69;;;11.11;81.58
59419;BME280;45224;50.904;6.038;2022-11-15T08:19:48;99083.25;;;11.24;81.66
59419;BME280;45224;50.904;6.038;2022-11-15T08:21:37;99073.06;;;11.16;79.80
59419;BME280;45224;50.904;6.038;2022-11-15T08:23:26;99071.19;;;11.26;80.04
59419;BME280;45224;50.904;6.038;2022-11-15T08:25:16;99081.53;;;11.26;79.54
59419;BME280;45224;50.904;6.038;2022-11-15T08:27:06;99083.88;;;11.41;78.71
59419;BME280;45224;50.904;6.038;2022-11-15T08:29:03;99085.72;;;11.33;77.85
59419;BME280;45224;50.904;6.038;2022-11-15T08:30:52;99090.16;;;11.25;78.24
59419;BME280;45224;50.904;6.038;2022-11-15T08:32:41;99086.72;;;11.26;77.68
59419;BME280;45224;50.904;6.038;2022-11-15T08:34:30;99086.03;;;11.13;76.31
59419;BME280;45224;50.904;6.038;2022-11-15T08:36:19;99082.41;;;11.25;76.22
59419;BME280;45224;50.904;6.038;2022-11-15T08:38:08;99082.34;;;11.29;76.94
59419;BME280;45224;50.904;6.038;2022-11-15T08:39:57;99088.56;;;11.16;76.70
59419;BME280;45224;50.904;6.038;2022-11-15T08:41:46;99079.00;;;11.21;76.87
59419;BME280;45224;50.904;6.038;2022-11-15T08:43:35;99079.81;;;11.25;76.86
59419;BME280;45224;50.904;6.038;2022-11-15T08:45:24;99072.03;;;11.26;77.17
59419;BME280;45224;50.904;6.038;2022-11-15T08:47:13;99077.97;;;11.33;77.14
59419;BME280;45224;50.904;6.038;2022-11-15T08:49:02;99069.59;;;11.15;76.94
59419;BME280;45224;50.904;6.038;2022-11-15T08:50:55;99066.00;;;11.26;77.17
59419;BME280;45224;50.904;6.038;2022-11-15T08:52:44;99060.78;;;11.29;77.42
59419;BME280;45224;50.904;6.038;2022-11-15T08:54:33;99072.16;;;11.15;77.23
59419;BME280;45224;50.904;6.038;2022-11-15T08:56:22;99063.59;;;11.12;77.23
59419;BME280;45224;50.904;6.038;2022-11-15T08:58:11;99061.81;;;11.15;76.90
59419;BME280;45224;50.904;6.038;2022-11-15T09:00:00;99060.13;;;11.16;77.16
59419;BME280;45224;50.904;6.038;2022-11-15T09:01:49;99057.59;;;11.11;77.25
59419;BME280;45224;50.904;6.038;2022-11-15T09:03:39;99054.88;;;11.21;76.62
59419;BME280;45224;50.904;6.038;2022-11-15T09:05:28;99055.03;;;11.08;75.84
59419;BME280;45224;50.904;6.038;2022-11-15T09:07:18;99044.78;;;11.02;75.62
59419;BME280;45224;50.904;6.038;2022-11-15T09:09:06;99053.22;;;11.15;75.51
59419;BME280;45224;50.904;6.038;2022-11-15T09:10:55;99046.25;;;11.19;75.97
59419;BME280;45224;50.904;6.038;2022-11-15T09:12:44;99036.53;;;11.36;76.00
59419;BME280;45224;50.904;6.038;2022-11-15T09:14:37;99045.28;;;11.29;74.75
59419;BME280;45224;50.904;6.038;2022-11-15T09:16:26;99037.13;;;11.52;74.44
59419;BME280;45224;50.904;6.038;2022-11-15T09:18:15;99035.13;;;11.71;74.28
59419;BME280;45224;50.904;6.038;2022-11-15T09:20:04;99025.38;;;11.85;73.67
59419;BME280;45224;50.904;6.038;2022-11-15T09:21:53;99018.34;;;11.94;72.99
59419;BME280;45224;50.904;6.038;2022-11-15T09:23:42;99014.59;;;12.10;72.40
59419;BME280;45224;50.904;6.038;2022-11-15T09:25:32;99014.13;;;12.35;72.68
59419;BME280;45224;50.904;6.038;2022-11-15T09:27:21;99009.53;;;12.48;69.63
59419;BME280;45224;50.904;6.038;2022-11-15T09:29:09;99017.09;;;12.60;70.38
59419;BME280;45224;50.904;6.038;2022-11-15T09:31:00;99010.19;;;12.98;70.77
59419;BME280;45224;50.904;6.038;2022-11-15T09:32:50;99018.56;;;13.50;68.12
59419;BME280;45224;50.904;6.038;2022-11-15T09:34:39;99020.91;;;13.61;63.89
59419;BME280;45224;50.904;6.038;2022-11-15T09:36:28;99013.84;;;14.00;65.72
59419;BME280;45224;50.904;6.038;2022-11-15T09:38:17;99014.44;;;14.10;62.45
59419;BME280;45224;50.904;6.038;2022-11-15T09:40:10;99002.84;;;14.22;61.88
59419;BME280;45224;50.904;6.038;2022-11-15T09:42:41;99011.28;;;14.63;61.70
59419;BME280;45224;50.904;6.038;2022-11-15T09:44:58;99002.53;;;14.95;59.45
59419;BME280;45224;50.904;6.038;2022-11-15T09:49:01;98994.97;;;15.68;60.72
59419;BME280;45224;50.904;6.038;2022-11-15T09:50:54;98992.13;;;15.76;56.95
59419;BME280;45224;50.904;6.038;2022-11-15T09:52:30;98994.59;;;15.80;57.68
59419;BME280;45224;50.904;6.038;2022-11-15T09:55:49;98996.72;;;16.19;53.55
59419;BME280;45224;50.904;6.038;2022-11-15T09:59:21;98997.75;;;15.90;52.56
59419;BME280;45224;50.904;6.038;2022-11-15T10:00:53;99001.09;;;15.94;55.14
59419;BME280;45224;50.904;6.038;2022-11-15T10:02:46;98993.22;;;15.95;51.48
59419;BME280;45224;50.904;6.038;2022-11-15T10:04:22;98998.78;;;15.86;52.95
59419;BME280;45224;50.904;6.038;2022-11-15T10:05:55;99004.75;;;15.61;52.84
59419;BME280;45224;50.904;6.038;2022-11-15T10:07:34;99009.63;;;15.72;53.41
59419;BME280;45224;50.904;6.038;2022-11-15T10:09:16;98999.09;;;15.48;50.99
59419;BME280;45224;50.904;6.038;2022-11-15T10:10:57;98995.84;;;15.68;51.79
59419;BME280;45224;50.904;6.038;2022-11-15T10:12:28;98993.03;;;15.76;51.21
59419;BME280;45224;50.904;6.038;2022-11-15T10:14:11;98993.59;;;15.58;49.81
59419;BME280;45224;50.904;6.038;2022-11-15T10:15:44;98988.56;;;15.51;50.80
59419;BME280;45224;50.904;6.038;2022-11-15T10:23:53;98984.09;;;15.02;50.26
59419;BME280;45224;50.904;6.038;2022-11-15T10:25:28;98977.97;;;15.58;50.44